Wayana — PE5639 — position and weather

sailwx.info

Track history (hours):
 
Tides and Currents Weather Stations Pressure Air Temp Water Temp Dewpoint Dewpoint Depression Visibility Wind Speed Wind Dir Waves Ship Positions

Wayana

Last reported at 2016-May-06 17:33 UTC. Time now 2016-May-26 02:52 UTC.
Position N 52°55' E 005°03'.
Warning: this ship's position is 19 days out of date.

Length 14 m.

Type: Sailing vessel. MMSI: 244020670.

Date/timePositionNaut miles runAvg speedWind from/ knotsBaromVisibWave heightAir tempDewpointWater temp
2016-May-06 17:33N 52°55' E 005°03'0 0.0
2016-May-06 16:30N 52°55' E 005°03'0 0.0
2016-May-06 15:33N 52°55' E 005°03'0 0.0
2016-May-06 14:33N 52°55' E 005°03'0 0.1
2016-May-06 13:33N 52°55' E 005°03'4 4.4
2016-May-06 12:32N 52°58' E 005°10'5 5.0
2016-May-06 11:30N 53°01' E 005°16'5 4.8
2016-May-06 10:33N 53°03' E 005°23'1 0.8
2016-May-06 09:31N 53°03' E 005°24'0 0.0
2016-May-06 08:34N 53°03' E 005°24'0 0.0
2016-May-06 07:33N 53°03' E 005°24'0 0.0
2016-May-06 06:33N 53°03' E 005°24'0 0.0
2016-May-06 05:33N 53°03' E 005°24'0 0.0
2016-May-06 04:33N 53°03' E 005°24'0 0.0
2016-May-06 03:30N 53°03' E 005°24'0 0.0
2016-May-06 02:33N 53°03' E 005°24'0 0.0
2016-May-06 01:33N 53°03' E 005°24'0 0.0
2016-May-06 00:27N 53°03' E 005°24'0 0.0
2016-May-05 23:33N 53°03' E 005°24'0 0.0
2016-May-05 22:33N 53°03' E 005°24'0 0.0
2016-May-05 21:33N 53°03' E 005°24'0 0.0
2016-May-05 20:33N 53°03' E 005°24'0 0.0
2016-May-05 19:33N 53°03' E 005°24'0 0.0
2016-May-05 18:33N 53°03' E 005°24'0 0.0
2016-May-05 17:33N 53°03' E 005°24'0 0.0
2016-May-05 13:32N 53°03' E 005°24'4 4.3
2016-May-05 12:33N 53°02' E 005°17'6 5.6
2016-May-05 11:33N 52°59' E 005°10'5 5.0
2016-May-05 10:33N 52°55' E 005°05'  
Track history (hours):
 
Tides and Currents Weather Stations Pressure Air Temp Water Temp Dewpoint Dewpoint Depression Visibility Wind Speed Wind Dir Waves Ship Positions

Wayana

Last reported at 2016-May-06 17:33 UTC. Time now 2016-May-26 02:52 UTC.
Position N 52°55' E 005°03'.
Warning: this ship's position is 19 days out of date.

Length 14 m.

Type: Sailing vessel. MMSI: 244020670.

Date/timePositionNaut miles runAvg speedWind from/ knotsBaromVisibWave heightAir tempDewpointWater temp
2016-May-06 17:33N 52°55' E 005°03'0 0.0
2016-May-06 16:30N 52°55' E 005°03'0 0.0
2016-May-06 15:33N 52°55' E 005°03'0 0.0
2016-May-06 14:33N 52°55' E 005°03'0 0.1
2016-May-06 13:33N 52°55' E 005°03'4 4.4
2016-May-06 12:32N 52°58' E 005°10'5 5.0
2016-May-06 11:30N 53°01' E 005°16'5 4.8
2016-May-06 10:33N 53°03' E 005°23'1 0.8
2016-May-06 09:31N 53°03' E 005°24'0 0.0
2016-May-06 08:34N 53°03' E 005°24'0 0.0
2016-May-06 07:33N 53°03' E 005°24'0 0.0
2016-May-06 06:33N 53°03' E 005°24'0 0.0
2016-May-06 05:33N 53°03' E 005°24'0 0.0
2016-May-06 04:33N 53°03' E 005°24'0 0.0
2016-May-06 03:30N 53°03' E 005°24'0 0.0
2016-May-06 02:33N 53°03' E 005°24'0 0.0
2016-May-06 01:33N 53°03' E 005°24'0 0.0
2016-May-06 00:27N 53°03' E 005°24'0 0.0
2016-May-05 23:33N 53°03' E 005°24'0 0.0
2016-May-05 22:33N 53°03' E 005°24'0 0.0
2016-May-05 21:33N 53°03' E 005°24'0 0.0
2016-May-05 20:33N 53°03' E 005°24'0 0.0
2016-May-05 19:33N 53°03' E 005°24'0 0.0
2016-May-05 18:33N 53°03' E 005°24'0 0.0
2016-May-05 17:33N 53°03' E 005°24'0 0.0
2016-May-05 13:32N 53°03' E 005°24'4 4.3
2016-May-05 12:33N 53°02' E 005°17'6 5.6
2016-May-05 11:33N 52°59' E 005°10'5 5.0
2016-May-05 10:33N 52°55' E 005°05'  

Dump ship's entire track history